sensor_id;sensor_type;location;lat;lon;timestamp;P1;durP1;ratioP1;P2;durP2;ratioP2
72125;SDS011;59999;51.676;22.650;2023-04-03T00:01:38;8.20;;;2.55;;
72125;SDS011;59999;51.676;22.650;2023-04-03T00:04:04;8.80;;;2.63;;
72125;SDS011;59999;51.676;22.650;2023-04-03T00:06:31;10.32;;;3.00;;
72125;SDS011;59999;51.676;22.650;2023-04-03T00:08:58;8.13;;;2.53;;
72125;SDS011;59999;51.676;22.650;2023-04-03T00:11:24;9.38;;;2.88;;
72125;SDS011;59999;51.676;22.650;2023-04-03T00:13:50;10.77;;;2.60;;
72125;SDS011;59999;51.676;22.650;2023-04-03T00:16:16;11.18;;;2.47;;
72125;SDS011;59999;51.676;22.650;2023-04-03T00:18:43;8.95;;;2.17;;
72125;SDS011;59999;51.676;22.650;2023-04-03T00:21:10;6.63;;;1.80;;
72125;SDS011;59999;51.676;22.650;2023-04-03T00:23:38;7.20;;;2.00;;
72125;SDS011;59999;51.676;22.650;2023-04-03T00:26:04;9.05;;;2.17;;
72125;SDS011;59999;51.676;22.650;2023-04-03T00:28:31;6.10;;;1.42;;
72125;SDS011;59999;51.676;22.650;2023-04-03T00:30:57;7.93;;;1.55;;
72125;SDS011;59999;51.676;22.650;2023-04-03T00:33:24;6.23;;;1.50;;
72125;SDS011;59999;51.676;22.650;2023-04-03T00:35:50;6.75;;;1.73;;
72125;SDS011;59999;51.676;22.650;2023-04-03T00:38:16;6.20;;;1.30;;
72125;SDS011;59999;51.676;22.650;2023-04-03T00:40:43;6.97;;;1.55;;
72125;SDS011;59999;51.676;22.650;2023-04-03T00:43:13;6.33;;;1.33;;
72125;SDS011;59999;51.676;22.650;2023-04-03T00:45:48;5.57;;;0.75;;
72125;SDS011;59999;51.676;22.650;2023-04-03T00:48:17;9.68;;;2.10;;
72125;SDS011;59999;51.676;22.650;2023-04-03T00:50:46;6.75;;;1.30;;
72125;SDS011;59999;51.676;22.650;2023-04-03T00:53:14;6.43;;;1.10;;
72125;SDS011;59999;51.676;22.650;2023-04-03T00:55:43;6.23;;;1.00;;
72125;SDS011;59999;51.676;22.650;2023-04-03T00:58:11;7.32;;;1.20;;
72125;SDS011;59999;51.676;22.650;2023-04-03T01:00:38;5.80;;;1.08;;
72125;SDS011;59999;51.676;22.650;2023-04-03T01:03:07;5.07;;;0.90;;
72125;SDS011;59999;51.676;22.650;2023-04-03T01:05:33;7.83;;;1.77;;
72125;SDS011;59999;51.676;22.650;2023-04-03T01:08:00;6.40;;;1.20;;
72125;SDS011;59999;51.676;22.650;2023-04-03T01:10:26;5.32;;;1.23;;
72125;SDS011;59999;51.676;22.650;2023-04-03T01:12:52;11.23;;;2.55;;
72125;SDS011;59999;51.676;22.650;2023-04-03T01:15:22;4.20;;;1.00;;
72125;SDS011;59999;51.676;22.650;2023-04-03T01:17:52;4.80;;;0.88;;
72125;SDS011;59999;51.676;22.650;2023-04-03T01:25:36;5.28;;;1.20;;
72125;SDS011;59999;51.676;22.650;2023-04-03T01:28:06;6.47;;;1.07;;
72125;SDS011;59999;51.676;22.650;2023-04-03T01:30:37;6.28;;;1.42;;
72125;SDS011;59999;51.676;22.650;2023-04-03T01:33:10;4.07;;;0.80;;
72125;SDS011;59999;51.676;22.650;2023-04-03T01:35:35;8.27;;;1.58;;
72125;SDS011;59999;51.676;22.650;2023-04-03T01:38:02;18.83;;;2.90;;
72125;SDS011;59999;51.676;22.650;2023-04-03T01:40:28;10.27;;;1.38;;
72125;SDS011;59999;51.676;22.650;2023-04-03T01:42:55;29.65;;;5.93;;
72125;SDS011;59999;51.676;22.650;2023-04-03T01:45:21;11.43;;;1.73;;
72125;SDS011;59999;51.676;22.650;2023-04-03T01:47:47;4.43;;;0.80;;
72125;SDS011;59999;51.676;22.650;2023-04-03T01:50:13;6.47;;;1.08;;
72125;SDS011;59999;51.676;22.650;2023-04-03T01:52:39;7.32;;;1.15;;
72125;SDS011;59999;51.676;22.650;2023-04-03T01:55:05;4.53;;;0.57;;
72125;SDS011;59999;51.676;22.650;2023-04-03T01:57:31;4.07;;;0.82;;
72125;SDS011;59999;51.676;22.650;2023-04-03T01:59:57;8.57;;;1.85;;
72125;SDS011;59999;51.676;22.650;2023-04-03T02:02:23;3.75;;;0.57;;
72125;SDS011;59999;51.676;22.650;2023-04-03T02:04:50;8.80;;;1.63;;
72125;SDS011;59999;51.676;22.650;2023-04-03T02:07:16;9.23;;;1.90;;
72125;SDS011;59999;51.676;22.650;2023-04-03T02:09:41;7.73;;;1.73;;
72125;SDS011;59999;51.676;22.650;2023-04-03T02:12:07;17.25;;;3.63;;
72125;SDS011;59999;51.676;22.650;2023-04-03T02:14:33;12.35;;;2.60;;
72125;SDS011;59999;51.676;22.650;2023-04-03T02:17:00;6.60;;;1.47;;
72125;SDS011;59999;51.676;22.650;2023-04-03T02:19:30;14.63;;;3.10;;
72125;SDS011;59999;51.676;22.650;2023-04-03T02:21:57;5.70;;;0.75;;
72125;SDS011;59999;51.676;22.650;2023-04-03T02:24:23;3.80;;;0.43;;
72125;SDS011;59999;51.676;22.650;2023-04-03T02:26:49;5.60;;;0.67;;
72125;SDS011;59999;51.676;22.650;2023-04-03T02:29:15;4.32;;;0.55;;
72125;SDS011;59999;51.676;22.650;2023-04-03T02:31:41;3.58;;;0.52;;
72125;SDS011;59999;51.676;22.650;2023-04-03T02:34:06;3.30;;;0.73;;
72125;SDS011;59999;51.676;22.650;2023-04-03T02:36:32;4.82;;;0.75;;
72125;SDS011;59999;51.676;22.650;2023-04-03T02:38:58;6.18;;;1.10;;
72125;SDS011;59999;51.676;22.650;2023-04-03T02:41:24;10.88;;;1.13;;
72125;SDS011;59999;51.676;22.650;2023-04-03T02:43:53;5.57;;;1.30;;
72125;SDS011;59999;51.676;22.650;2023-04-03T02:46:19;11.50;;;2.22;;
72125;SDS011;59999;51.676;22.650;2023-04-03T02:48:44;3.53;;;0.65;;
72125;SDS011;59999;51.676;22.650;2023-04-03T02:51:11;4.43;;;0.60;;
72125;SDS011;59999;51.676;22.650;2023-04-03T02:53:36;3.97;;;0.50;;
72125;SDS011;59999;51.676;22.650;2023-04-03T02:56:02;3.33;;;0.80;;
72125;SDS011;59999;51.676;22.650;2023-04-03T02:58:28;4.30;;;0.60;;
72125;SDS011;59999;51.676;22.650;2023-04-03T03:00:54;5.57;;;0.70;;
72125;SDS011;59999;51.676;22.650;2023-04-03T03:03:20;3.38;;;0.50;;
72125;SDS011;59999;51.676;22.650;2023-04-03T03:05:46;4.65;;;0.57;;
72125;SDS011;59999;51.676;22.650;2023-04-03T03:08:13;5.15;;;0.57;;
72125;SDS011;59999;51.676;22.650;2023-04-03T03:10:39;3.13;;;0.47;;
72125;SDS011;59999;51.676;22.650;2023-04-03T03:13:05;4.28;;;0.68;;
72125;SDS011;59999;51.676;22.650;2023-04-03T03:15:31;4.28;;;0.60;;
72125;SDS011;59999;51.676;22.650;2023-04-03T03:17:57;4.30;;;0.40;;
72125;SDS011;59999;51.676;22.650;2023-04-03T03:20:23;3.88;;;0.38;;
72125;SDS011;59999;51.676;22.650;2023-04-03T03:22:49;4.95;;;0.80;;
72125;SDS011;59999;51.676;22.650;2023-04-03T03:25:15;6.07;;;1.23;;
72125;SDS011;59999;51.676;22.650;2023-04-03T03:27:42;3.25;;;0.40;;
72125;SDS011;59999;51.676;22.650;2023-04-03T03:30:08;1.90;;;0.30;;
72125;SDS011;59999;51.676;22.650;2023-04-03T03:32:34;2.83;;;0.40;;
72125;SDS011;59999;51.676;22.650;2023-04-03T03:35:00;4.00;;;0.60;;
72125;SDS011;59999;51.676;22.650;2023-04-03T03:37:26;4.00;;;0.50;;
72125;SDS011;59999;51.676;22.650;2023-04-03T03:39:53;4.18;;;0.73;;
72125;SDS011;59999;51.676;22.650;2023-04-03T03:42:19;5.70;;;0.75;;
72125;SDS011;59999;51.676;22.650;2023-04-03T03:44:45;3.92;;;0.30;;
72125;SDS011;59999;51.676;22.650;2023-04-03T03:47:11;3.73;;;0.60;;
72125;SDS011;59999;51.676;22.650;2023-04-03T03:49:37;8.02;;;0.90;;
72125;SDS011;59999;51.676;22.650;2023-04-03T03:52:03;4.35;;;0.50;;
72125;SDS011;59999;51.676;22.650;2023-04-03T03:54:38;3.13;;;0.50;;
72125;SDS011;59999;51.676;22.650;2023-04-03T03:57:04;11.48;;;2.80;;
72125;SDS011;59999;51.676;22.650;2023-04-03T03:59:30;5.47;;;0.45;;
72125;SDS011;59999;51.676;22.650;2023-04-03T04:01:56;8.40;;;1.37;;
72125;SDS011;59999;51.676;22.650;2023-04-03T04:04:22;3.15;;;0.43;;
72125;SDS011;59999;51.676;22.650;2023-04-03T04:06:48;5.68;;;0.90;;
72125;SDS011;59999;51.676;22.650;2023-04-03T04:09:14;3.97;;;0.47;;
72125;SDS011;59999;51.676;22.650;2023-04-03T04:11:40;3.78;;;0.50;;
72125;SDS011;59999;51.676;22.650;2023-04-03T04:14:07;4.70;;;0.70;;
72125;SDS011;59999;51.676;22.650;2023-04-03T04:16:35;4.30;;;0.50;;
72125;SDS011;59999;51.676;22.650;2023-04-03T04:19:01;6.43;;;1.30;;
72125;SDS011;59999;51.676;22.650;2023-04-03T04:21:27;2.53;;;0.43;;
72125;SDS011;59999;51.676;22.650;2023-04-03T04:23:53;4.68;;;0.50;;
72125;SDS011;59999;51.676;22.650;2023-04-03T04:26:19;9.05;;;0.70;;
72125;SDS011;59999;51.676;22.650;2023-04-03T04:28:46;2.72;;;0.40;;
72125;SDS011;59999;51.676;22.650;2023-04-03T04:31:12;3.75;;;0.60;;
72125;SDS011;59999;51.676;22.650;2023-04-03T04:33:38;4.65;;;0.98;;
72125;SDS011;59999;51.676;22.650;2023-04-03T04:36:04;3.77;;;0.53;;
72125;SDS011;59999;51.676;22.650;2023-04-03T04:38:30;4.22;;;0.70;;
72125;SDS011;59999;51.676;22.650;2023-04-03T04:40:56;4.68;;;0.73;;
72125;SDS011;59999;51.676;22.650;2023-04-03T04:43:22;3.23;;;0.40;;
72125;SDS011;59999;51.676;22.650;2023-04-03T04:45:48;5.22;;;0.57;;
72125;SDS011;59999;51.676;22.650;2023-04-03T04:48:14;3.20;;;0.52;;
72125;SDS011;59999;51.676;22.650;2023-04-03T04:50:40;5.30;;;0.93;;
72125;SDS011;59999;51.676;22.650;2023-04-03T04:53:06;3.95;;;0.68;;
72125;SDS011;59999;51.676;22.650;2023-04-03T04:55:32;5.38;;;0.43;;
72125;SDS011;59999;51.676;22.650;2023-04-03T04:57:58;5.10;;;1.03;;
72125;SDS011;59999;51.676;22.650;2023-04-03T05:00:24;3.80;;;0.60;;
72125;SDS011;59999;51.676;22.650;2023-04-03T05:02:50;6.63;;;1.40;;
72125;SDS011;59999;51.676;22.650;2023-04-03T05:05:16;4.60;;;0.70;;
72125;SDS011;59999;51.676;22.650;2023-04-03T05:07:42;5.18;;;1.00;;
72125;SDS011;59999;51.676;22.650;2023-04-03T05:10:08;5.13;;;0.70;;
72125;SDS011;59999;51.676;22.650;2023-04-03T05:12:35;5.82;;;0.90;;
72125;SDS011;59999;51.676;22.650;2023-04-03T05:15:01;4.90;;;0.70;;
72125;SDS011;59999;51.676;22.650;2023-04-03T05:17:27;4.70;;;0.65;;
72125;SDS011;59999;51.676;22.650;2023-04-03T05:19:53;3.10;;;0.50;;
72125;SDS011;59999;51.676;22.650;2023-04-03T05:22:19;5.10;;;1.13;;
72125;SDS011;59999;51.676;22.650;2023-04-03T05:24:44;4.45;;;0.70;;
72125;SDS011;59999;51.676;22.650;2023-04-03T05:27:11;7.22;;;1.90;;
72125;SDS011;59999;51.676;22.650;2023-04-03T05:29:36;5.20;;;0.80;;
72125;SDS011;59999;51.676;22.650;2023-04-03T05:32:02;4.78;;;0.50;;
72125;SDS011;59999;51.676;22.650;2023-04-03T05:34:28;4.85;;;0.82;;
72125;SDS011;59999;51.676;22.650;2023-04-03T05:36:55;4.15;;;0.60;;
72125;SDS011;59999;51.676;22.650;2023-04-03T05:39:20;6.83;;;1.60;;
72125;SDS011;59999;51.676;22.650;2023-04-03T05:41:47;6.90;;;2.15;;
72125;SDS011;59999;51.676;22.650;2023-04-03T05:44:13;14.55;;;4.90;;
72125;SDS011;59999;51.676;22.650;2023-04-03T05:46:40;8.03;;;1.93;;
72125;SDS011;59999;51.676;22.650;2023-04-03T05:49:06;10.43;;;3.15;;
72125;SDS011;59999;51.676;22.650;2023-04-03T05:51:35;4.88;;;0.70;;
72125;SDS011;59999;51.676;22.650;2023-04-03T05:56:55;5.85;;;1.55;;
72125;SDS011;59999;51.676;22.650;2023-04-03T05:59:21;5.40;;;1.40;;
72125;SDS011;59999;51.676;22.650;2023-04-03T06:01:47;6.68;;;1.48;;
72125;SDS011;59999;51.676;22.650;2023-04-03T06:04:14;4.47;;;0.70;;
72125;SDS011;59999;51.676;22.650;2023-04-03T06:09:17;8.37;;;1.63;;
72125;SDS011;59999;51.676;22.650;2023-04-03T06:11:44;3.97;;;0.70;;
72125;SDS011;59999;51.676;22.650;2023-04-03T06:14:10;5.72;;;1.10;;
72125;SDS011;59999;51.676;22.650;2023-04-03T06:16:36;5.63;;;0.85;;
72125;SDS011;59999;51.676;22.650;2023-04-03T06:19:03;4.77;;;0.70;;
72125;SDS011;59999;51.676;22.650;2023-04-03T06:21:29;5.38;;;1.00;;
72125;SDS011;59999;51.676;22.650;2023-04-03T06:23:55;3.75;;;0.70;;
72125;SDS011;59999;51.676;22.650;2023-04-03T06:26:21;6.20;;;1.30;;
72125;SDS011;59999;51.676;22.650;2023-04-03T06:28:47;4.33;;;0.83;;
72125;SDS011;59999;51.676;22.650;2023-04-03T06:31:13;5.55;;;0.80;;
72125;SDS011;59999;51.676;22.650;2023-04-03T06:33:39;5.45;;;1.05;;
72125;SDS011;59999;51.676;22.650;2023-04-03T06:36:06;3.75;;;0.60;;
72125;SDS011;59999;51.676;22.650;2023-04-03T06:38:33;3.83;;;0.70;;
72125;SDS011;59999;51.676;22.650;2023-04-03T06:41:00;4.80;;;0.98;;
72125;SDS011;59999;51.676;22.650;2023-04-03T06:43:25;4.22;;;0.70;;
72125;SDS011;59999;51.676;22.650;2023-04-03T06:45:52;4.18;;;0.65;;
72125;SDS011;59999;51.676;22.650;2023-04-03T06:48:18;4.23;;;0.90;;
72125;SDS011;59999;51.676;22.650;2023-04-03T06:50:44;6.13;;;0.88;;
72125;SDS011;59999;51.676;22.650;2023-04-03T06:53:10;6.15;;;0.70;;
72125;SDS011;59999;51.676;22.650;2023-04-03T06:55:37;3.85;;;0.60;;
72125;SDS011;59999;51.676;22.650;2023-04-03T06:58:03;6.47;;;1.63;;
72125;SDS011;59999;51.676;22.650;2023-04-03T07:00:30;4.63;;;0.90;;
72125;SDS011;59999;51.676;22.650;2023-04-03T07:02:56;4.40;;;0.80;;
72125;SDS011;59999;51.676;22.650;2023-04-03T07:05:23;4.47;;;0.93;;
72125;SDS011;59999;51.676;22.650;2023-04-03T07:07:50;17.73;;;5.28;;
72125;SDS011;59999;51.676;22.650;2023-04-03T07:10:17;17.67;;;5.60;;
72125;SDS011;59999;51.676;22.650;2023-04-03T07:12:42;10.93;;;2.92;;
72125;SDS011;59999;51.676;22.650;2023-04-03T07:15:09;7.03;;;1.77;;
72125;SDS011;59999;51.676;22.650;2023-04-03T07:17:35;4.45;;;0.82;;
72125;SDS011;59999;51.676;22.650;2023-04-03T07:20:02;4.30;;;0.80;;
72125;SDS011;59999;51.676;22.650;2023-04-03T07:22:29;4.90;;;0.82;;
72125;SDS011;59999;51.676;22.650;2023-04-03T07:24:55;3.95;;;0.73;;
72125;SDS011;59999;51.676;22.650;2023-04-03T07:27:21;8.27;;;1.80;;
72125;SDS011;59999;51.676;22.650;2023-04-03T07:29:47;4.18;;;0.80;;
72125;SDS011;59999;51.676;22.650;2023-04-03T07:32:14;5.27;;;0.60;;
72125;SDS011;59999;51.676;22.650;2023-04-03T07:34:40;4.72;;;0.80;;
72125;SDS011;59999;51.676;22.650;2023-04-03T07:37:07;6.13;;;0.98;;
72125;SDS011;59999;51.676;22.650;2023-04-03T07:39:34;4.15;;;0.70;;
72125;SDS011;59999;51.676;22.650;2023-04-03T07:42:00;3.73;;;0.70;;
72125;SDS011;59999;51.676;22.650;2023-04-03T07:44:27;3.67;;;0.70;;
72125;SDS011;59999;51.676;22.650;2023-04-03T07:46:54;5.22;;;0.57;;
72125;SDS011;59999;51.676;22.650;2023-04-03T07:49:23;5.32;;;0.82;;
72125;SDS011;59999;51.676;22.650;2023-04-03T07:51:49;3.50;;;0.60;;
72125;SDS011;59999;51.676;22.650;2023-04-03T07:54:16;3.00;;;0.50;;
72125;SDS011;59999;51.676;22.650;2023-04-03T07:56:42;4.20;;;0.50;;
72125;SDS011;59999;51.676;22.650;2023-04-03T07:59:09;3.00;;;0.50;;
72125;SDS011;59999;51.676;22.650;2023-04-03T08:01:36;2.33;;;0.40;;
72125;SDS011;59999;51.676;22.650;2023-04-03T08:04:03;3.53;;;0.30;;
72125;SDS011;59999;51.676;22.650;2023-04-03T08:06:30;2.63;;;0.47;;
72125;SDS011;59999;51.676;22.650;2023-04-03T08:08:58;4.00;;;0.75;;
72125;SDS011;59999;51.676;22.650;2023-04-03T08:11:24;3.45;;;0.80;;
72125;SDS011;59999;51.676;22.650;2023-04-03T08:13:52;5.70;;;0.98;;
72125;SDS011;59999;51.676;22.650;2023-04-03T08:16:19;3.35;;;0.57;;
72125;SDS011;59999;51.676;22.650;2023-04-03T08:18:48;5.20;;;0.73;;
72125;SDS011;59999;51.676;22.650;2023-04-03T08:21:14;3.85;;;0.80;;
72125;SDS011;59999;51.676;22.650;2023-04-03T08:23:40;3.37;;;0.60;;
72125;SDS011;59999;51.676;22.650;2023-04-03T08:26:11;3.40;;;0.50;;
72125;SDS011;59999;51.676;22.650;2023-04-03T08:28:39;4.20;;;0.50;;
72125;SDS011;59999;51.676;22.650;2023-04-03T08:31:07;3.70;;;0.80;;
72125;SDS011;59999;51.676;22.650;2023-04-03T08:33:36;3.85;;;0.55;;
72125;SDS011;59999;51.676;22.650;2023-04-03T08:36:04;5.57;;;0.90;;
72125;SDS011;59999;51.676;22.650;2023-04-03T08:38:32;4.50;;;0.70;;
72125;SDS011;59999;51.676;22.650;2023-04-03T08:41:02;4.40;;;0.60;;
72125;SDS011;59999;51.676;22.650;2023-04-03T08:43:36;3.58;;;0.52;;
72125;SDS011;59999;51.676;22.650;2023-04-03T08:46:05;4.45;;;0.45;;
72125;SDS011;59999;51.676;22.650;2023-04-03T08:48:35;3.57;;;0.50;;
72125;SDS011;59999;51.676;22.650;2023-04-03T08:51:15;3.95;;;0.52;;
72125;SDS011;59999;51.676;22.650;2023-04-03T08:54:02;5.03;;;0.55;;
72125;SDS011;59999;51.676;22.650;2023-04-03T08:56:33;3.50;;;0.40;;
72125;SDS011;59999;51.676;22.650;2023-04-03T08:59:04;2.28;;;0.40;;
72125;SDS011;59999;51.676;22.650;2023-04-03T09:04:05;3.42;;;0.50;;
72125;SDS011;59999;51.676;22.650;2023-04-03T09:06:39;4.57;;;0.57;;
72125;SDS011;59999;51.676;22.650;2023-04-03T09:16:57;7.10;;;1.30;;
72125;SDS011;59999;51.676;22.650;2023-04-03T09:22:16;4.13;;;0.77;;
72125;SDS011;59999;51.676;22.650;2023-04-03T09:24:47;4.60;;;0.80;;
72125;SDS011;59999;51.676;22.650;2023-04-03T09:27:19;5.63;;;1.00;;
72125;SDS011;59999;51.676;22.650;2023-04-03T09:29:45;5.50;;;1.58;;
72125;SDS011;59999;51.676;22.650;2023-04-03T09:34:47;5.40;;;1.42;;
72125;SDS011;59999;51.676;22.650;2023-04-03T09:37:36;3.80;;;0.83;;
72125;SDS011;59999;51.676;22.650;2023-04-03T09:40:02;2.70;;;0.40;;
72125;SDS011;59999;51.676;22.650;2023-04-03T09:42:30;5.10;;;1.02;;
72125;SDS011;59999;51.676;22.650;2023-04-03T09:45:04;4.43;;;0.75;;
72125;SDS011;59999;51.676;22.650;2023-04-03T09:47:47;4.05;;;0.55;;
72125;SDS011;59999;51.676;22.650;2023-04-03T09:52:39;3.60;;;0.70;;
72125;SDS011;59999;51.676;22.650;2023-04-03T09:55:07;5.70;;;1.25;;
72125;SDS011;59999;51.676;22.650;2023-04-03T09:57:38;5.10;;;1.15;;
72125;SDS011;59999;51.676;22.650;2023-04-03T10:00:06;5.18;;;1.00;;
72125;SDS011;59999;51.676;22.650;2023-04-03T10:02:49;4.13;;;0.77;;
72125;SDS011;59999;51.676;22.650;2023-04-03T10:08:08;4.95;;;0.90;;
72125;SDS011;59999;51.676;22.650;2023-04-03T10:10:41;3.40;;;0.60;;
72125;SDS011;59999;51.676;22.650;2023-04-03T10:13:18;4.47;;;0.80;;
72125;SDS011;59999;51.676;22.650;2023-04-03T10:15:56;2.57;;;0.40;;
72125;SDS011;59999;51.676;22.650;2023-04-03T10:18:49;3.58;;;0.70;;
72125;SDS011;59999;51.676;22.650;2023-04-03T10:24:25;3.53;;;0.65;;
72125;SDS011;59999;51.676;22.650;2023-04-03T10:26:58;2.95;;;0.57;;
72125;SDS011;59999;51.676;22.650;2023-04-03T10:29:46;3.37;;;0.43;;
72125;SDS011;59999;51.676;22.650;2023-04-03T10:35:08;3.10;;;0.50;;
72125;SDS011;59999;51.676;22.650;2023-04-03T10:38:04;3.40;;;0.50;;
72125;SDS011;59999;51.676;22.650;2023-04-03T10:46:07;3.20;;;0.45;;
72125;SDS011;59999;51.676;22.650;2023-04-03T10:48:58;3.50;;;0.40;;
72125;SDS011;59999;51.676;22.650;2023-04-03T10:51:45;2.55;;;0.40;;
72125;SDS011;59999;51.676;22.650;2023-04-03T11:04:39;4.15;;;0.50;;
72125;SDS011;59999;51.676;22.650;2023-04-03T11:07:08;3.70;;;0.70;;
72125;SDS011;59999;51.676;22.650;2023-04-03T11:09:41;3.33;;;0.70;;
72125;SDS011;59999;51.676;22.650;2023-04-03T11:14:49;3.85;;;0.60;;
72125;SDS011;59999;51.676;22.650;2023-04-03T11:19:50;3.50;;;0.47;;
72125;SDS011;59999;51.676;22.650;2023-04-03T11:24:57;3.28;;;0.40;;
72125;SDS011;59999;51.676;22.650;2023-04-03T11:30:30;3.90;;;0.60;;
72125;SDS011;59999;51.676;22.650;2023-04-03T11:35:42;2.00;;;0.40;;
72125;SDS011;59999;51.676;22.650;2023-04-03T11:38:14;2.33;;;0.40;;
72125;SDS011;59999;51.676;22.650;2023-04-03T11:40:47;3.30;;;0.75;;
72125;SDS011;59999;51.676;22.650;2023-04-03T11:43:22;4.05;;;1.25;;
72125;SDS011;59999;51.676;22.650;2023-04-03T11:45:56;6.25;;;1.30;;
72125;SDS011;59999;51.676;22.650;2023-04-03T11:50:59;3.97;;;0.90;;
72125;SDS011;59999;51.676;22.650;2023-04-03T11:53:38;5.07;;;0.80;;
72125;SDS011;59999;51.676;22.650;2023-04-03T12:01:52;3.63;;;1.00;;
72125;SDS011;59999;51.676;22.650;2023-04-03T12:04:20;3.00;;;0.70;;
72125;SDS011;59999;51.676;22.650;2023-04-03T12:09:24;6.97;;;2.40;;
72125;SDS011;59999;51.676;22.650;2023-04-03T12:11:51;5.85;;;1.98;;
72125;SDS011;59999;51.676;22.650;2023-04-03T12:14:17;7.27;;;2.73;;
72125;SDS011;59999;51.676;22.650;2023-04-03T12:16:45;10.50;;;3.88;;
72125;SDS011;59999;51.676;22.650;2023-04-03T12:22:10;7.55;;;2.20;;
72125;SDS011;59999;51.676;22.650;2023-04-03T12:24:45;4.45;;;1.60;;
72125;SDS011;59999;51.676;22.650;2023-04-03T12:27:25;5.90;;;1.80;;
72125;SDS011;59999;51.676;22.650;2023-04-03T12:45:40;4.72;;;1.25;;
72125;SDS011;59999;51.676;22.650;2023-04-03T12:48:17;3.58;;;0.80;;
72125;SDS011;59999;51.676;22.650;2023-04-03T12:50:47;4.35;;;1.00;;
72125;SDS011;59999;51.676;22.650;2023-04-03T12:53:23;5.80;;;1.23;;
72125;SDS011;59999;51.676;22.650;2023-04-03T12:55:56;5.43;;;1.45;;
72125;SDS011;59999;51.676;22.650;2023-04-03T12:58:27;7.07;;;2.10;;
72125;SDS011;59999;51.676;22.650;2023-04-03T13:01:00;5.93;;;1.70;;
72125;SDS011;59999;51.676;22.650;2023-04-03T13:03:28;5.70;;;1.52;;
72125;SDS011;59999;51.676;22.650;2023-04-03T13:06:01;14.27;;;4.50;;
72125;SDS011;59999;51.676;22.650;2023-04-03T13:08:29;10.90;;;3.72;;
72125;SDS011;59999;51.676;22.650;2023-04-03T13:11:09;54.70;;;21.83;;
72125;SDS011;59999;51.676;22.650;2023-04-03T13:13:37;88.25;;;24.02;;
72125;SDS011;59999;51.676;22.650;2023-04-03T13:16:08;85.72;;;25.38;;
72125;SDS011;59999;51.676;22.650;2023-04-03T13:18:36;40.27;;;7.60;;
72125;SDS011;59999;51.676;22.650;2023-04-03T13:21:11;18.92;;;4.22;;
72125;SDS011;59999;51.676;22.650;2023-04-03T13:23:42;11.45;;;2.05;;
72125;SDS011;59999;51.676;22.650;2023-04-03T13:26:11;9.27;;;1.92;;
72125;SDS011;59999;51.676;22.650;2023-04-03T13:28:38;6.78;;;1.50;;
72125;SDS011;59999;51.676;22.650;2023-04-03T13:33:41;5.00;;;1.20;;
72125;SDS011;59999;51.676;22.650;2023-04-03T13:36:20;11.07;;;2.25;;
72125;SDS011;59999;51.676;22.650;2023-04-03T13:39:00;15.00;;;2.95;;
72125;SDS011;59999;51.676;22.650;2023-04-03T13:42:14;7.20;;;1.30;;
72125;SDS011;59999;51.676;22.650;2023-04-03T13:44:48;12.70;;;3.00;;
72125;SDS011;59999;51.676;22.650;2023-04-03T13:49:58;10.15;;;1.67;;
72125;SDS011;59999;51.676;22.650;2023-04-03T13:52:43;18.58;;;3.10;;
72125;SDS011;59999;51.676;22.650;2023-04-03T13:55:17;10.10;;;1.65;;
72125;SDS011;59999;51.676;22.650;2023-04-03T13:57:59;15.47;;;2.63;;
72125;SDS011;59999;51.676;22.650;2023-04-03T14:06:12;15.07;;;3.60;;
72125;SDS011;59999;51.676;22.650;2023-04-03T14:08:40;9.23;;;1.52;;
72125;SDS011;59999;51.676;22.650;2023-04-03T14:11:26;9.53;;;2.00;;
72125;SDS011;59999;51.676;22.650;2023-04-03T14:13:54;7.65;;;1.70;;
72125;SDS011;59999;51.676;22.650;2023-04-03T14:16:24;10.13;;;2.45;;
72125;SDS011;59999;51.676;22.650;2023-04-03T14:18:52;7.38;;;1.08;;
72125;SDS011;59999;51.676;22.650;2023-04-03T14:21:19;5.75;;;1.23;;
72125;SDS011;59999;51.676;22.650;2023-04-03T14:23:45;5.60;;;1.00;;
72125;SDS011;59999;51.676;22.650;2023-04-03T14:26:16;7.85;;;1.80;;
72125;SDS011;59999;51.676;22.650;2023-04-03T14:28:48;7.15;;;1.20;;
72125;SDS011;59999;51.676;22.650;2023-04-03T14:31:16;6.30;;;1.27;;
72125;SDS011;59999;51.676;22.650;2023-04-03T14:33:43;5.07;;;0.70;;
72125;SDS011;59999;51.676;22.650;2023-04-03T14:36:16;5.90;;;1.13;;
72125;SDS011;59999;51.676;22.650;2023-04-03T14:38:45;9.10;;;2.83;;
72125;SDS011;59999;51.676;22.650;2023-04-03T14:41:12;4.75;;;1.30;;
72125;SDS011;59999;51.676;22.650;2023-04-03T14:43:40;8.02;;;2.47;;
72125;SDS011;59999;51.676;22.650;2023-04-03T14:46:14;3.60;;;1.10;;
72125;SDS011;59999;51.676;22.650;2023-04-03T14:48:51;3.33;;;0.63;;
72125;SDS011;59999;51.676;22.650;2023-04-03T14:51:17;6.10;;;1.45;;
72125;SDS011;59999;51.676;22.650;2023-04-03T14:53:43;9.98;;;2.40;;
72125;SDS011;59999;51.676;22.650;2023-04-03T14:56:21;16.17;;;4.60;;
72125;SDS011;59999;51.676;22.650;2023-04-03T14:58:51;51.55;;;31.55;;
72125;SDS011;59999;51.676;22.650;2023-04-03T15:01:21;31.83;;;14.07;;
72125;SDS011;59999;51.676;22.650;2023-04-03T15:03:47;41.47;;;18.52;;
72125;SDS011;59999;51.676;22.650;2023-04-03T15:06:13;25.25;;;12.02;;
72125;SDS011;59999;51.676;22.650;2023-04-03T15:08:40;16.23;;;7.80;;
72125;SDS011;59999;51.676;22.650;2023-04-03T15:11:09;15.15;;;6.82;;
72125;SDS011;59999;51.676;22.650;2023-04-03T15:13:36;12.15;;;3.65;;
72125;SDS011;59999;51.676;22.650;2023-04-03T15:16:03;9.18;;;3.22;;
72125;SDS011;59999;51.676;22.650;2023-04-03T15:18:31;16.55;;;6.90;;
72125;SDS011;59999;51.676;22.650;2023-04-03T15:21:02;10.57;;;3.50;;
72125;SDS011;59999;51.676;22.650;2023-04-03T15:23:28;10.35;;;3.25;;
72125;SDS011;59999;51.676;22.650;2023-04-03T15:25:55;8.27;;;2.70;;
72125;SDS011;59999;51.676;22.650;2023-04-03T15:28:22;7.13;;;1.83;;
72125;SDS011;59999;51.676;22.650;2023-04-03T15:30:53;11.27;;;2.28;;
72125;SDS011;59999;51.676;22.650;2023-04-03T15:33:19;6.70;;;2.85;;
72125;SDS011;59999;51.676;22.650;2023-04-03T15:35:45;10.68;;;3.00;;
72125;SDS011;59999;51.676;22.650;2023-04-03T15:38:11;20.52;;;7.93;;
72125;SDS011;59999;51.676;22.650;2023-04-03T15:40:37;16.55;;;5.03;;
72125;SDS011;59999;51.676;22.650;2023-04-03T15:43:04;9.50;;;3.72;;
72125;SDS011;59999;51.676;22.650;2023-04-03T15:45:31;24.75;;;8.68;;
72125;SDS011;59999;51.676;22.650;2023-04-03T15:47:57;11.85;;;5.15;;
72125;SDS011;59999;51.676;22.650;2023-04-03T15:50:23;9.68;;;3.75;;
72125;SDS011;59999;51.676;22.650;2023-04-03T15:52:50;25.60;;;7.37;;
72125;SDS011;59999;51.676;22.650;2023-04-03T15:55:20;15.73;;;6.72;;
72125;SDS011;59999;51.676;22.650;2023-04-03T15:57:47;10.15;;;3.42;;
72125;SDS011;59999;51.676;22.650;2023-04-03T16:00:14;12.85;;;4.13;;
72125;SDS011;59999;51.676;22.650;2023-04-03T16:02:40;33.80;;;8.48;;
72125;SDS011;59999;51.676;22.650;2023-04-03T16:05:08;9.88;;;2.80;;
72125;SDS011;59999;51.676;22.650;2023-04-03T16:07:34;15.90;;;5.80;;
72125;SDS011;59999;51.676;22.650;2023-04-03T16:10:04;14.75;;;5.32;;
72125;SDS011;59999;51.676;22.650;2023-04-03T16:12:30;17.83;;;4.87;;
72125;SDS011;59999;51.676;22.650;2023-04-03T16:14:56;20.17;;;6.18;;
72125;SDS011;59999;51.676;22.650;2023-04-03T16:17:21;12.18;;;4.55;;
72125;SDS011;59999;51.676;22.650;2023-04-03T16:19:47;18.43;;;7.80;;
72125;SDS011;59999;51.676;22.650;2023-04-03T16:22:13;10.13;;;4.30;;
72125;SDS011;59999;51.676;22.650;2023-04-03T16:24:39;16.27;;;6.53;;
72125;SDS011;59999;51.676;22.650;2023-04-03T16:27:05;11.90;;;4.63;;